createdAt,value
2017-01-09T00:00:03.563Z,0.84
2017-01-09T00:00:44.170Z,0.87
2017-01-09T00:01:24.723Z,0.86
2017-01-09T00:02:05.393Z,0.87
2017-01-09T00:02:45.973Z,0.87
2017-01-09T00:03:26.576Z,0.92
2017-01-09T00:04:07.153Z,0.87
2017-01-09T00:04:47.791Z,0.87
2017-01-09T00:05:28.489Z,0.92
2017-01-09T00:06:09.094Z,0.92
2017-01-09T00:06:49.768Z,0.91
2017-01-09T00:07:30.386Z,0.86
2017-01-09T00:08:11.060Z,0.92
2017-01-09T00:08:51.707Z,0.81
2017-01-09T00:09:32.352Z,0.92
2017-01-09T00:10:13.024Z,0.88
2017-01-09T00:10:53.667Z,0.92
2017-01-09T00:11:34.328Z,0.94
2017-01-09T00:12:14.964Z,0.86
2017-01-09T00:12:55.645Z,0.92
2017-01-09T00:13:36.296Z,0.88
2017-01-09T00:14:18.919Z,0.84
2017-01-09T00:15:00.546Z,0.8
2017-01-09T00:15:41.119Z,0.83
2017-01-09T00:16:21.781Z,0.86
2017-01-09T00:17:02.453Z,0.86
2017-01-09T00:17:43.059Z,0.84
2017-01-09T00:18:23.634Z,0.84
2017-01-09T00:19:04.319Z,0.8
2017-01-09T00:19:44.928Z,0.86
2017-01-09T00:20:25.611Z,0.94
2017-01-09T00:21:06.232Z,0.83
2017-01-09T00:21:46.860Z,0.83
2017-01-09T00:22:27.441Z,0.91
2017-01-09T00:23:08.076Z,0.87
2017-01-09T00:23:48.779Z,0.92
2017-01-09T00:24:29.405Z,0.91
2017-01-09T00:25:10.046Z,0.86
2017-01-09T00:25:50.705Z,0.87
2017-01-09T00:26:31.344Z,0.95
2017-01-09T00:27:12.041Z,0.94
2017-01-09T00:27:53.692Z,0.87
2017-01-09T00:28:34.328Z,0.91
2017-01-09T00:29:14.992Z,0.94
2017-01-09T00:29:56.648Z,0.87
2017-01-09T00:30:37.324Z,0.81
2017-01-09T00:31:17.982Z,0.84
2017-01-09T00:31:58.622Z,0.91
2017-01-09T00:32:39.275Z,0.87
2017-01-09T00:33:19.932Z,0.92
2017-01-09T00:34:00.523Z,0.81
2017-01-09T00:34:41.113Z,0.92
2017-01-09T00:35:21.696Z,0.87
2017-01-09T00:36:02.346Z,0.92
2017-01-09T00:36:42.941Z,0.86
2017-01-09T00:37:23.542Z,0.87
2017-01-09T00:38:04.088Z,0.88
2017-01-09T00:38:44.774Z,0.87
2017-01-09T00:39:25.429Z,0.87
2017-01-09T00:40:06.080Z,0.83
2017-01-09T00:40:46.659Z,0.84
2017-01-09T00:41:27.277Z,0.87
2017-01-09T00:42:07.919Z,0.91
2017-01-09T00:42:48.580Z,0.83
2017-01-09T00:43:29.209Z,0.92
2017-01-09T00:44:09.895Z,0.88
2017-01-09T00:44:50.558Z,0.81
2017-01-09T00:45:31.179Z,0.81
2017-01-09T00:46:11.845Z,0.84
2017-01-09T00:46:52.472Z,0.8
2017-01-09T00:47:33.999Z,0.87
2017-01-09T00:48:14.610Z,0.88
2017-01-09T00:48:55.283Z,0.84
2017-01-09T00:49:35.943Z,0.84
2017-01-09T00:50:16.609Z,0.88
2017-01-09T00:50:58.246Z,0.83
2017-01-09T00:51:38.882Z,0.81
2017-01-09T00:52:19.563Z,0.87
2017-01-09T00:53:00.196Z,0.88
2017-01-09T00:53:41.817Z,0.84
2017-01-09T00:54:22.487Z,0.78
2017-01-09T00:55:03.079Z,0.81
2017-01-09T00:55:43.672Z,0.78
2017-01-09T00:56:24.292Z,0.84
2017-01-09T00:57:04.881Z,0.84
2017-01-09T00:57:45.487Z,0.88
2017-01-09T00:58:27.006Z,0.81
2017-01-09T00:59:07.630Z,0.86
2017-01-09T00:59:48.265Z,0.86
2017-01-09T01:00:28.827Z,0.86
2017-01-09T01:01:09.486Z,0.87
2017-01-09T01:01:50.204Z,0.86
2017-01-09T01:02:30.792Z,0.78
2017-01-09T01:03:11.437Z,0.88
2017-01-09T01:03:52.076Z,0.77
2017-01-09T01:04:32.637Z,0.87
2017-01-09T01:05:13.299Z,0.86
2017-01-09T01:05:53.916Z,0.84
2017-01-09T01:06:34.583Z,0.87
2017-01-09T01:07:15.152Z,0.81
2017-01-09T01:07:55.820Z,0.81
2017-01-09T01:08:36.489Z,0.86
2017-01-09T01:09:17.277Z,0.78
2017-01-09T01:09:57.901Z,0.83
2017-01-09T01:10:38.570Z,0.87
2017-01-09T01:11:19.212Z,0.87
2017-01-09T01:11:59.880Z,0.81
2017-01-09T01:12:40.825Z,0.87
2017-01-09T01:13:22.495Z,0.88
2017-01-09T01:14:03.092Z,0.81
2017-01-09T01:14:43.665Z,0.83
2017-01-09T01:15:24.370Z,0.86
2017-01-09T01:16:04.952Z,0.81
2017-01-09T01:16:45.508Z,0.86
2017-01-09T01:17:26.173Z,0.81
2017-01-09T01:18:06.762Z,0.86
2017-01-09T01:18:47.359Z,0.84
2017-01-09T01:19:27.941Z,0.83
2017-01-09T01:20:08.591Z,0.84
2017-01-09T01:20:50.269Z,0.83
2017-01-09T01:21:30.919Z,0.84
2017-01-09T01:22:11.571Z,0.84
2017-01-09T01:22:52.208Z,0.83
2017-01-09T01:23:33.896Z,0.84
2017-01-09T01:24:14.543Z,0.81
2017-01-09T01:24:55.197Z,0.81
2017-01-09T01:25:35.850Z,0.83
2017-01-09T01:26:16.477Z,0.88
2017-01-09T01:26:57.156Z,0.84
2017-01-09T01:27:37.808Z,0.84
2017-01-09T01:28:18.459Z,0.81
2017-01-09T01:29:00.134Z,0.78
2017-01-09T01:29:40.723Z,0.8
2017-01-09T01:30:21.327Z,0.86
2017-01-09T01:31:01.915Z,0.86
2017-01-09T01:31:43.567Z,0.76
2017-01-09T01:32:25.003Z,0.84
2017-01-09T01:33:05.574Z,0.81
2017-01-09T01:33:46.270Z,0.86
2017-01-09T01:34:26.897Z,0.81
2017-01-09T01:35:07.550Z,0.78
2017-01-09T01:35:48.186Z,0.78
2017-01-09T01:36:28.872Z,0.78
2017-01-09T01:37:09.520Z,0.81
2017-01-09T01:37:50.148Z,0.83
2017-01-09T01:38:30.814Z,0.81
2017-01-09T01:39:11.458Z,0.84
2017-01-09T01:39:52.142Z,0.78
2017-01-09T01:40:32.783Z,0.87
2017-01-09T01:41:13.425Z,0.8
2017-01-09T01:41:54.075Z,0.81
2017-01-09T01:42:34.731Z,0.88
2017-01-09T01:43:15.438Z,0.77
2017-01-09T01:43:56.035Z,0.78
2017-01-09T01:44:36.598Z,0.86
2017-01-09T01:45:18.264Z,0.81
2017-01-09T01:45:58.913Z,0.8
2017-01-09T01:46:39.582Z,0.83
2017-01-09T01:47:20.208Z,0.8
2017-01-09T01:48:00.872Z,0.78
2017-01-09T01:48:41.513Z,0.77
2017-01-09T01:49:22.129Z,0.83
2017-01-09T01:50:02.719Z,0.77
2017-01-09T01:50:43.791Z,0.76
2017-01-09T01:51:24.458Z,0.8
2017-01-09T01:52:05.049Z,0.8
2017-01-09T01:52:45.641Z,0.76
2017-01-09T01:53:26.746Z,0.81
2017-01-09T01:54:07.375Z,0.78
2017-01-09T01:54:48.020Z,0.83
2017-01-09T01:55:28.705Z,0.76
2017-01-09T01:56:10.358Z,0.81
2017-01-09T01:56:50.996Z,0.8
2017-01-09T01:57:31.667Z,0.78
2017-01-09T01:58:12.315Z,0.77
2017-01-09T01:58:53.029Z,0.83
2017-01-09T01:59:33.666Z,0.83
2017-01-09T02:00:14.261Z,0.81
2017-01-09T02:00:54.846Z,0.8
2017-01-09T02:01:35.477Z,0.77
2017-01-09T02:02:16.062Z,0.81
2017-01-09T02:02:56.665Z,0.8
2017-01-09T02:03:37.261Z,0.69
2017-01-09T02:04:17.929Z,0.81
2017-01-09T02:04:58.577Z,0.8
2017-01-09T02:05:40.199Z,0.76
2017-01-09T02:06:20.750Z,0.76
2017-01-09T02:07:01.402Z,0.81
2017-01-09T02:07:41.999Z,0.81
2017-01-09T02:08:22.711Z,0.8
2017-01-09T02:09:03.264Z,0.81
2017-01-09T02:09:44.005Z,0.78
2017-01-09T02:10:24.690Z,0.84
2017-01-09T02:11:05.335Z,0.76
2017-01-09T02:11:45.987Z,0.78
2017-01-09T02:12:26.647Z,0.76
2017-01-09T02:13:07.292Z,0.77
2017-01-09T02:13:47.924Z,0.8
2017-01-09T02:14:28.534Z,0.76
2017-01-09T02:15:09.211Z,0.76
2017-01-09T02:15:49.706Z,0.76
2017-01-09T02:16:30.346Z,0.81
2017-01-09T02:17:10.934Z,0.78
2017-01-09T02:17:51.538Z,0.76
2017-01-09T02:18:32.111Z,0.77
2017-01-09T02:19:12.788Z,0.73
2017-01-09T02:19:53.352Z,0.81
2017-01-09T02:20:33.942Z,0.73
2017-01-09T02:21:14.508Z,0.74
2017-01-09T02:21:55.185Z,0.77
2017-01-09T02:22:36.782Z,0.74
2017-01-09T02:23:17.375Z,0.76
2017-01-09T02:23:57.916Z,0.81
2017-01-09T02:24:38.578Z,0.8
2017-01-09T02:25:19.236Z,0.76
2017-01-09T02:25:59.888Z,0.74
2017-01-09T02:26:40.552Z,0.74
2017-01-09T02:27:21.209Z,0.7
2017-01-09T02:28:01.861Z,0.77
2017-01-09T02:28:42.504Z,0.78
2017-01-09T02:29:23.097Z,0.73
2017-01-09T02:30:04.725Z,0.81
2017-01-09T02:30:45.278Z,0.8
2017-01-09T02:31:25.933Z,0.81
2017-01-09T02:32:06.542Z,0.73
2017-01-09T02:32:47.133Z,0.73
2017-01-09T02:33:27.682Z,0.68
2017-01-09T02:34:08.349Z,0.74
2017-01-09T02:34:49.006Z,0.74
2017-01-09T02:35:30.668Z,0.73
2017-01-09T02:36:11.340Z,0.74
2017-01-09T02:36:52.522Z,0.78
2017-01-09T02:37:34.221Z,0.73
2017-01-09T02:38:14.836Z,0.77
2017-01-09T02:38:55.498Z,0.74
2017-01-09T02:39:36.177Z,0.73
2017-01-09T02:40:17.794Z,0.77
2017-01-09T02:40:58.368Z,0.73
2017-01-09T02:41:40.033Z,0.77
2017-01-09T02:42:20.620Z,0.74
2017-01-09T02:43:01.227Z,0.69
2017-01-09T02:43:41.802Z,0.8
2017-01-09T02:44:22.451Z,0.78
2017-01-09T02:45:03.097Z,0.81
2017-01-09T02:45:43.748Z,0.78
2017-01-09T02:46:24.418Z,0.74
2017-01-09T02:47:05.066Z,0.77
2017-01-09T02:47:45.723Z,0.77
2017-01-09T02:48:26.311Z,0.77
2017-01-09T02:49:06.946Z,0.74
2017-01-09T02:49:47.570Z,0.7
2017-01-09T02:50:28.219Z,0.73
2017-01-09T02:51:09.893Z,0.73
2017-01-09T02:51:50.549Z,0.73
2017-01-09T02:52:31.200Z,0.78
2017-01-09T02:53:12.876Z,0.7
2017-01-09T02:53:53.515Z,0.73
2017-01-09T02:54:34.179Z,0.66
2017-01-09T02:55:14.819Z,0.78
2017-01-09T02:55:55.490Z,0.74
2017-01-09T02:56:36.138Z,0.7
2017-01-09T02:57:16.801Z,0.8
2017-01-09T02:57:57.444Z,0.7
2017-01-09T02:58:38.013Z,0.74
2017-01-09T02:59:18.657Z,0.7
2017-01-09T02:59:59.239Z,0.74
2017-01-09T03:00:39.839Z,0.76
2017-01-09T03:01:20.401Z,0.74
2017-01-09T03:02:01.051Z,0.78
2017-01-09T03:02:41.649Z,0.73
2017-01-09T03:03:22.243Z,0.76
2017-01-09T03:04:02.808Z,0.76
2017-01-09T03:04:43.466Z,0.73
2017-01-09T03:05:24.101Z,0.63
2017-01-09T03:06:04.661Z,0.73
2017-01-09T03:06:45.318Z,0.76
2017-01-09T03:07:25.958Z,0.77
2017-01-09T03:08:06.519Z,0.8
2017-01-09T03:08:47.172Z,0.74
2017-01-09T03:09:27.812Z,0.74
2017-01-09T03:10:08.463Z,0.73
2017-01-09T03:10:49.115Z,0.74
2017-01-09T03:11:29.772Z,0.78
2017-01-09T03:12:10.436Z,0.74
2017-01-09T03:12:51.076Z,0.76
2017-01-09T03:13:32.653Z,0.81
2017-01-09T03:14:13.225Z,0.74
2017-01-09T03:14:53.853Z,0.7
2017-01-09T03:15:34.527Z,0.77
2017-01-09T03:16:15.071Z,0.81
2017-01-09T03:16:55.714Z,0.73
2017-01-09T03:17:36.363Z,0.78
2017-01-09T03:18:17.021Z,0.7
2017-01-09T03:18:57.586Z,0.73
2017-01-09T03:19:38.152Z,0.7
2017-01-09T03:20:18.724Z,0.7
2017-01-09T03:20:59.403Z,0.76
2017-01-09T03:21:39.960Z,0.73
2017-01-09T03:22:20.542Z,0.74
2017-01-09T03:23:01.144Z,0.84
2017-01-09T03:23:42.749Z,0.7
2017-01-09T03:24:23.402Z,0.69
2017-01-09T03:25:04.064Z,0.76
2017-01-09T03:25:44.711Z,0.74
2017-01-09T03:26:25.363Z,0.73
2017-01-09T03:27:06.017Z,0.76
2017-01-09T03:27:47.591Z,0.7
2017-01-09T03:28:28.242Z,0.78
2017-01-09T03:29:08.833Z,0.69
2017-01-09T03:29:49.459Z,0.73
2017-01-09T03:30:30.056Z,0.77
2017-01-09T03:31:10.646Z,0.74
2017-01-09T03:31:51.208Z,0.69
2017-01-09T03:32:31.861Z,0.65
2017-01-09T03:33:12.464Z,0.7
2017-01-09T03:33:53.065Z,0.76
2017-01-09T03:34:33.650Z,0.73
2017-01-09T03:35:14.277Z,0.76
2017-01-09T03:35:54.869Z,0.7
2017-01-09T03:36:36.498Z,0.74
2017-01-09T03:37:17.064Z,0.69
2017-01-09T03:37:57.719Z,0.81
2017-01-09T03:38:38.301Z,0.76
2017-01-09T03:39:18.900Z,0.77
2017-01-09T03:39:59.548Z,0.78
2017-01-09T03:40:40.790Z,0.74
2017-01-09T03:41:21.362Z,0.78
2017-01-09T03:42:02.025Z,0.76
2017-01-09T03:42:42.679Z,0.7
2017-01-09T03:43:23.326Z,0.78
2017-01-09T03:44:03.984Z,0.7
2017-01-09T03:44:44.638Z,0.77
2017-01-09T03:45:25.291Z,0.81
2017-01-09T03:46:05.944Z,0.73
2017-01-09T03:46:46.614Z,0.74
2017-01-09T03:47:27.248Z,0.74
2017-01-09T03:48:08.516Z,0.73
2017-01-09T03:48:50.095Z,0.8
2017-01-09T03:49:30.643Z,0.78
2017-01-09T03:50:11.294Z,0.81
2017-01-09T03:50:51.918Z,0.8
2017-01-09T03:51:32.503Z,0.8
2017-01-09T03:52:13.076Z,0.78
2017-01-09T03:52:53.706Z,0.77
2017-01-09T03:53:34.323Z,0.76
2017-01-09T03:54:14.905Z,0.74
2017-01-09T03:54:55.489Z,0.77
2017-01-09T03:55:36.126Z,0.74
2017-01-09T03:56:16.714Z,0.77
2017-01-09T03:56:58.343Z,0.77
2017-01-09T03:57:38.926Z,0.78
2017-01-09T03:58:19.536Z,0.87
2017-01-09T03:59:00.139Z,0.7
2017-01-09T03:59:40.748Z,0.78
2017-01-09T04:00:21.314Z,0.77
2017-01-09T04:01:01.983Z,0.73
2017-01-09T04:01:42.560Z,0.8
2017-01-09T04:02:23.254Z,0.76
2017-01-09T04:03:05.296Z,0.77
2017-01-09T04:03:45.913Z,0.8
2017-01-09T04:04:26.510Z,0.73
2017-01-09T04:05:07.202Z,0.77
2017-01-09T04:05:47.767Z,0.74
2017-01-09T04:06:28.462Z,0.74
2017-01-09T04:07:10.020Z,0.76
2017-01-09T04:07:50.643Z,0.76
2017-01-09T04:08:31.231Z,0.76
2017-01-09T04:09:11.842Z,0.74
2017-01-09T04:09:52.538Z,0.77
2017-01-09T04:10:33.138Z,0.8
2017-01-09T04:11:13.722Z,0.78
2017-01-09T04:11:54.371Z,0.74
2017-01-09T04:12:35.061Z,0.68
2017-01-09T04:13:15.741Z,0.74
2017-01-09T04:13:56.324Z,0.74
2017-01-09T04:14:36.959Z,0.7
2017-01-09T04:15:17.623Z,0.76
2017-01-09T04:15:58.272Z,0.78
2017-01-09T04:16:38.934Z,0.69
2017-01-09T04:17:19.589Z,0.76
2017-01-09T04:18:00.213Z,0.73
2017-01-09T04:18:40.906Z,0.69
2017-01-09T04:19:21.540Z,0.74
2017-01-09T04:20:02.170Z,0.74
2017-01-09T04:20:42.748Z,0.74
2017-01-09T04:21:23.383Z,0.77
2017-01-09T04:22:04.028Z,0.77
2017-01-09T04:22:44.598Z,0.73
2017-01-09T04:23:25.255Z,0.73
2017-01-09T04:24:05.882Z,0.77
2017-01-09T04:24:46.462Z,0.7
2017-01-09T04:25:27.137Z,0.74
2017-01-09T04:26:07.767Z,0.76
2017-01-09T04:26:48.393Z,0.77
2017-01-09T04:27:29.068Z,0.74
2017-01-09T04:28:09.726Z,0.8
2017-01-09T04:28:50.373Z,0.8
2017-01-09T04:29:31.032Z,0.73
2017-01-09T04:30:11.655Z,0.76
2017-01-09T04:30:52.830Z,0.83
2017-01-09T04:31:33.482Z,0.77
2017-01-09T04:32:14.054Z,0.77
2017-01-09T04:32:54.709Z,0.78
2017-01-09T04:33:35.361Z,0.8
2017-01-09T04:34:16.014Z,0.73
2017-01-09T04:34:56.660Z,0.73
2017-01-09T04:35:37.345Z,0.78
2017-01-09T04:36:17.953Z,0.76
2017-01-09T04:36:58.598Z,0.8
2017-01-09T04:37:39.283Z,0.77
2017-01-09T04:38:19.929Z,0.8
2017-01-09T04:39:00.583Z,0.7
2017-01-09T04:39:42.183Z,0.8
2017-01-09T04:40:22.783Z,0.74
2017-01-09T04:41:03.355Z,0.77
2017-01-09T04:41:44.001Z,0.77
2017-01-09T04:42:24.603Z,0.78
2017-01-09T04:43:05.200Z,0.8
2017-01-09T04:43:47.286Z,0.73
2017-01-09T04:44:29.702Z,0.69
2017-01-09T04:45:10.275Z,0.73
2017-01-09T04:45:50.838Z,0.73
2017-01-09T04:46:31.483Z,0.7
2017-01-09T04:47:12.084Z,0.74
2017-01-09T04:47:52.684Z,0.69
2017-01-09T04:48:33.253Z,0.68
2017-01-09T04:49:13.904Z,0.74
2017-01-09T04:49:54.487Z,0.74
2017-01-09T04:50:35.090Z,0.73
2017-01-09T04:51:15.659Z,0.78
2017-01-09T04:51:56.319Z,0.74
2017-01-09T04:52:36.998Z,0.7
2017-01-09T04:53:17.598Z,0.7
2017-01-09T04:53:58.166Z,0.74
2017-01-09T04:54:39.691Z,0.83
2017-01-09T04:55:20.292Z,0.74
2017-01-09T04:56:00.949Z,0.77
2017-01-09T04:56:41.601Z,0.77
2017-01-09T04:57:22.257Z,0.81
2017-01-09T04:58:02.886Z,0.73
2017-01-09T04:58:43.560Z,0.77
2017-01-09T04:59:24.209Z,0.74
2017-01-09T05:00:04.823Z,0.77
2017-01-09T05:00:45.395Z,0.73
2017-01-09T05:01:25.972Z,0.83
2017-01-09T05:02:06.618Z,0.81
2017-01-09T05:02:47.212Z,0.81
2017-01-09T05:03:27.802Z,0.77
2017-01-09T05:04:08.363Z,0.81
2017-01-09T05:04:49.023Z,0.7
2017-01-09T05:05:29.610Z,0.77
2017-01-09T05:06:10.309Z,0.77
2017-01-09T05:06:50.882Z,0.73
2017-01-09T05:07:31.536Z,0.77
2017-01-09T05:08:12.126Z,0.73
2017-01-09T05:08:52.724Z,0.78
2017-01-09T05:09:33.290Z,0.78
2017-01-09T05:10:13.936Z,0.74
2017-01-09T05:10:54.575Z,0.73
2017-01-09T05:11:35.143Z,0.73
2017-01-09T05:12:15.812Z,0.8
2017-01-09T05:12:56.430Z,0.8
2017-01-09T05:13:38.001Z,0.84
2017-01-09T05:14:18.659Z,0.81
2017-01-09T05:14:59.333Z,0.77
2017-01-09T05:15:41.020Z,0.84
2017-01-09T05:16:22.690Z,0.76
2017-01-09T05:17:04.381Z,0.8
2017-01-09T05:17:45.000Z,0.76
2017-01-09T05:18:25.647Z,0.78
2017-01-09T05:19:06.303Z,0.77
2017-01-09T05:19:46.958Z,0.77
2017-01-09T05:20:27.610Z,0.74
2017-01-09T05:21:08.261Z,0.8
2017-01-09T05:21:48.912Z,0.83
2017-01-09T05:22:29.571Z,0.76
2017-01-09T05:23:10.223Z,0.8
2017-01-09T05:23:50.876Z,0.7
2017-01-09T05:24:31.449Z,0.76
2017-01-09T05:25:12.086Z,0.77
2017-01-09T05:25:52.758Z,0.8
2017-01-09T05:26:33.399Z,0.77
2017-01-09T05:27:13.974Z,0.76
2017-01-09T05:27:54.619Z,0.78
2017-01-09T05:28:36.296Z,0.84
2017-01-09T05:29:18.062Z,0.74
2017-01-09T05:29:58.655Z,0.81
2017-01-09T05:30:39.244Z,0.74
2017-01-09T05:31:19.831Z,0.76
2017-01-09T05:32:00.476Z,0.76
2017-01-09T05:32:41.061Z,0.7
2017-01-09T05:33:21.654Z,0.73
2017-01-09T05:34:02.220Z,0.77
2017-01-09T05:34:42.872Z,0.78
2017-01-09T05:35:23.530Z,0.81
2017-01-09T05:36:04.180Z,0.77
2017-01-09T05:36:45.861Z,0.76
2017-01-09T05:37:26.513Z,0.83
2017-01-09T05:38:07.167Z,0.8
2017-01-09T05:38:47.831Z,0.83
2017-01-09T05:39:28.482Z,0.77
2017-01-09T05:40:09.776Z,0.76
2017-01-09T05:40:50.377Z,0.81
2017-01-09T05:41:30.926Z,0.81
2017-01-09T05:42:11.596Z,0.81
2017-01-09T05:42:52.191Z,0.77
2017-01-09T05:43:32.783Z,0.84
2017-01-09T05:44:13.346Z,0.76
2017-01-09T05:44:54.015Z,0.8
2017-01-09T05:45:34.649Z,0.77
2017-01-09T05:46:15.306Z,0.81
2017-01-09T05:46:55.973Z,0.77
2017-01-09T05:47:36.618Z,0.77
2017-01-09T05:48:17.263Z,0.83
2017-01-09T05:48:58.831Z,0.78
2017-01-09T05:49:39.392Z,0.77
2017-01-09T05:50:19.984Z,0.76
2017-01-09T05:51:00.582Z,0.81
2017-01-09T05:51:41.148Z,0.8
2017-01-09T05:52:21.795Z,0.8
2017-01-09T05:53:02.383Z,0.77
2017-01-09T05:53:42.978Z,0.77
2017-01-09T05:54:23.548Z,0.77
2017-01-09T05:55:04.201Z,0.78
2017-01-09T05:55:44.789Z,0.77
2017-01-09T05:56:25.386Z,0.8
2017-01-09T05:57:05.961Z,0.74
2017-01-09T05:57:46.612Z,0.8
2017-01-09T05:58:27.199Z,0.81
2017-01-09T05:59:07.895Z,0.81
2017-01-09T05:59:48.526Z,0.74
2017-01-09T06:00:29.119Z,0.77
2017-01-09T06:01:09.713Z,0.73
2017-01-09T06:01:50.308Z,0.81
2017-01-09T06:02:30.875Z,0.81
2017-01-09T06:03:11.662Z,0.86
2017-01-09T06:03:52.361Z,0.78
2017-01-09T06:04:33.019Z,0.77
2017-01-09T06:05:13.674Z,0.81
2017-01-09T06:05:54.326Z,0.84
2017-01-09T06:06:34.979Z,0.74
2017-01-09T06:07:15.630Z,0.76
2017-01-09T06:07:57.308Z,0.81
2017-01-09T06:08:37.956Z,0.76
2017-01-09T06:09:18.608Z,0.81
2017-01-09T06:09:59.229Z,0.74
2017-01-09T06:10:39.834Z,0.81
2017-01-09T06:11:20.499Z,0.77
2017-01-09T06:12:01.141Z,0.77
2017-01-09T06:12:41.803Z,0.78
2017-01-09T06:13:22.447Z,0.78
2017-01-09T06:14:03.110Z,0.83
2017-01-09T06:14:43.753Z,0.76
2017-01-09T06:15:24.470Z,0.8
2017-01-09T06:16:04.955Z,0.84
2017-01-09T06:16:45.596Z,0.81
2017-01-09T06:17:26.249Z,0.84
2017-01-09T06:18:07.800Z,0.84
2017-01-09T06:18:49.305Z,0.76
2017-01-09T06:19:29.944Z,0.83
2017-01-09T06:20:10.523Z,0.84
2017-01-09T06:20:52.226Z,0.83
2017-01-09T06:21:33.860Z,0.86
2017-01-09T06:22:15.522Z,0.84
2017-01-09T06:22:56.191Z,0.86
2017-01-09T06:23:36.861Z,0.83
2017-01-09T06:24:17.510Z,0.86
2017-01-09T06:24:58.150Z,0.87
2017-01-09T06:25:38.811Z,0.84
2017-01-09T06:26:19.460Z,0.88
2017-01-09T06:27:01.024Z,0.86
2017-01-09T06:27:41.681Z,0.86
2017-01-09T06:28:22.367Z,0.87
2017-01-09T06:29:02.981Z,0.8
2017-01-09T06:29:43.656Z,0.78
2017-01-09T06:30:24.289Z,0.87
2017-01-09T06:31:04.952Z,0.78
2017-01-09T06:31:45.603Z,0.81
2017-01-09T06:32:26.770Z,0.8
2017-01-09T06:33:07.415Z,0.83
2017-01-09T06:33:49.006Z,0.81
2017-01-09T06:34:29.656Z,0.84
2017-01-09T06:35:10.247Z,0.81
2017-01-09T06:35:50.834Z,0.88
2017-01-09T06:36:31.399Z,0.81
2017-01-09T06:37:12.069Z,0.88
2017-01-09T06:37:52.755Z,0.81
2017-01-09T06:38:33.350Z,0.83
2017-01-09T06:39:13.907Z,0.81
2017-01-09T06:39:54.574Z,0.84
2017-01-09T06:40:35.211Z,0.83
2017-01-09T06:41:15.863Z,0.81
2017-01-09T06:41:56.530Z,0.88
2017-01-09T06:42:37.170Z,0.78
2017-01-09T06:43:17.855Z,0.86
2017-01-09T06:43:58.478Z,0.81
2017-01-09T06:44:39.135Z,0.87
2017-01-09T06:45:19.814Z,0.88
2017-01-09T06:46:00.457Z,0.81
2017-01-09T06:46:41.110Z,0.81
2017-01-09T06:47:21.776Z,0.83
2017-01-09T06:48:02.410Z,0.8
2017-01-09T06:48:43.101Z,0.81
2017-01-09T06:49:23.713Z,0.81
2017-01-09T06:50:04.371Z,0.8
2017-01-09T06:50:45.036Z,0.83
2017-01-09T06:51:25.675Z,0.84
2017-01-09T06:52:06.322Z,0.84
2017-01-09T06:52:46.974Z,0.88
2017-01-09T06:53:27.641Z,0.83
2017-01-09T06:54:08.286Z,0.87
2017-01-09T06:54:48.927Z,0.81
2017-01-09T06:55:29.571Z,0.91
2017-01-09T06:56:10.145Z,0.86
2017-01-09T06:56:50.810Z,0.83
2017-01-09T06:57:31.431Z,0.91
2017-01-09T06:58:12.001Z,0.87
2017-01-09T06:58:52.655Z,0.91
2017-01-09T06:59:33.999Z,0.87
2017-01-09T07:00:14.564Z,0.84
2017-01-09T07:00:55.212Z,0.87
2017-01-09T07:01:35.815Z,0.84
2017-01-09T07:02:16.411Z,0.92
2017-01-09T07:02:56.990Z,0.88
2017-01-09T07:03:37.627Z,0.81
2017-01-09T07:04:18.217Z,0.84
2017-01-09T07:04:58.897Z,0.83
2017-01-09T07:05:39.378Z,0.87
2017-01-09T07:06:20.048Z,0.94
2017-01-09T07:07:00.728Z,0.88
2017-01-09T07:07:41.326Z,0.87
2017-01-09T07:08:21.879Z,0.81
2017-01-09T07:09:02.554Z,0.94
2017-01-09T07:09:43.237Z,0.92
2017-01-09T07:10:23.835Z,0.87
2017-01-09T07:11:04.405Z,0.91
2017-01-09T07:11:45.067Z,0.86
2017-01-09T07:12:25.745Z,0.86
2017-01-09T07:13:07.294Z,0.91
2017-01-09T07:13:47.855Z,0.87
2017-01-09T07:14:28.499Z,0.86
2017-01-09T07:15:09.184Z,0.86
2017-01-09T07:15:49.825Z,0.92
2017-01-09T07:16:30.477Z,0.87
2017-01-09T07:17:11.134Z,0.95
2017-01-09T07:17:51.787Z,0.84
2017-01-09T07:18:32.446Z,0.96
2017-01-09T07:19:13.090Z,0.92
2017-01-09T07:19:53.692Z,0.94
2017-01-09T07:20:34.250Z,0.88
2017-01-09T07:21:14.922Z,0.87
2017-01-09T07:21:55.593Z,0.84
2017-01-09T07:22:36.339Z,0.94
2017-01-09T07:23:16.914Z,0.96
2017-01-09T07:23:57.540Z,0.92
2017-01-09T07:24:38.211Z,0.91
2017-01-09T07:25:18.865Z,0.98
2017-01-09T07:25:59.525Z,0.98
2017-01-09T07:26:40.276Z,0.92
2017-01-09T07:27:20.828Z,0.95
2017-01-09T07:28:01.476Z,0.96
2017-01-09T07:28:42.129Z,0.88
2017-01-09T07:29:22.790Z,1.01
2017-01-09T07:30:03.423Z,0.91
2017-01-09T07:30:44.142Z,0.92
2017-01-09T07:31:24.730Z,0.92
2017-01-09T07:32:05.440Z,0.92
2017-01-09T07:32:47.072Z,0.91
2017-01-09T07:33:27.740Z,0.95
2017-01-09T07:34:08.388Z,0.95
2017-01-09T07:34:49.023Z,0.98
2017-01-09T07:35:29.681Z,0.92
2017-01-09T07:36:11.274Z,0.94
2017-01-09T07:36:51.917Z,0.96
2017-01-09T07:37:32.566Z,0.98
2017-01-09T07:38:13.217Z,0.98
2017-01-09T07:38:54.929Z,1.01
2017-01-09T07:39:35.549Z,0.94
2017-01-09T07:40:16.103Z,0.98
2017-01-09T07:40:56.762Z,1.01
2017-01-09T07:41:37.344Z,0.98
2017-01-09T07:42:17.909Z,1.02
2017-01-09T07:42:58.562Z,0.99
2017-01-09T07:43:39.202Z,0.98
2017-01-09T07:44:19.785Z,0.96
2017-01-09T07:45:00.422Z,1.02
2017-01-09T07:45:41.073Z,1.02
2017-01-09T07:46:21.624Z,1.01
2017-01-09T07:47:02.291Z,1.02
2017-01-09T07:47:42.919Z,0.98
2017-01-09T07:48:23.462Z,1.02
2017-01-09T07:49:04.149Z,1.05
2017-01-09T07:49:44.767Z,0.98
2017-01-09T07:50:25.336Z,1.04
2017-01-09T07:51:06.002Z,0.99
2017-01-09T07:51:46.681Z,0.98
2017-01-09T07:52:29.326Z,0.98
2017-01-09T07:53:09.895Z,1.05
2017-01-09T07:53:50.549Z,1.1
2017-01-09T07:54:31.137Z,0.96
2017-01-09T07:55:11.848Z,1.01
2017-01-09T07:55:52.453Z,1.02
2017-01-09T07:56:33.119Z,0.98
2017-01-09T07:57:13.753Z,1.05
2017-01-09T07:57:54.409Z,1.04
2017-01-09T07:58:35.064Z,1.04
2017-01-09T07:59:15.708Z,1.04
2017-01-09T07:59:56.368Z,1.05
2017-01-09T08:00:38.046Z,1.02
2017-01-09T08:01:18.693Z,1.05
2017-01-09T08:01:59.361Z,1.04
2017-01-09T08:02:40.024Z,1.05
2017-01-09T08:03:20.754Z,1.06
2017-01-09T08:04:01.413Z,1.06
2017-01-09T08:04:43.086Z,1.02
2017-01-09T08:05:23.804Z,1.01
2017-01-09T08:06:04.899Z,1.06
2017-01-09T08:06:45.511Z,1.1
2017-01-09T08:07:26.113Z,1.08
2017-01-09T08:08:06.701Z,1.06
2017-01-09T08:08:47.267Z,1.05
2017-01-09T08:09:27.926Z,1.06
2017-01-09T08:10:08.513Z,1.1
2017-01-09T08:10:49.130Z,1.16
2017-01-09T08:11:29.782Z,1.1
2017-01-09T08:12:10.435Z,1.13
2017-01-09T08:12:51.353Z,1.17
2017-01-09T08:13:31.948Z,1.1
2017-01-09T08:14:13.503Z,1.17
2017-01-09T08:14:54.178Z,1.16
2017-01-09T08:15:34.738Z,1.1
2017-01-09T08:16:15.352Z,1.23
2017-01-09T08:16:55.926Z,1.05
2017-01-09T08:17:36.579Z,1.23
2017-01-09T08:18:17.215Z,1.2
2017-01-09T08:18:57.818Z,1.22
2017-01-09T08:19:38.431Z,1.2
2017-01-09T08:20:19.071Z,1.17
2017-01-09T08:20:59.630Z,1.23
2017-01-09T08:21:40.325Z,1.26
2017-01-09T08:22:21.031Z,1.23
2017-01-09T08:23:01.594Z,1.2
2017-01-09T08:23:42.236Z,1.26
2017-01-09T08:24:24.846Z,1.28
2017-01-09T08:25:05.389Z,1.26
2017-01-09T08:25:45.958Z,1.26
2017-01-09T08:26:33.670Z,1.28
2017-01-09T08:27:14.231Z,1.28
2017-01-09T08:27:54.910Z,1.32
2017-01-09T08:28:36.532Z,1.28
2017-01-09T08:29:17.096Z,1.32
2017-01-09T08:29:57.750Z,1.35
2017-01-09T08:30:38.342Z,1.35
2017-01-09T08:31:18.936Z,1.28
2017-01-09T08:31:59.514Z,1.4
2017-01-09T08:32:40.173Z,1.26
2017-01-09T08:33:20.748Z,1.31
2017-01-09T08:34:01.333Z,1.31
2017-01-09T08:34:41.933Z,1.38
2017-01-09T08:35:22.612Z,1.45
2017-01-09T08:36:04.299Z,1.32
2017-01-09T08:36:44.989Z,1.31
2017-01-09T08:37:25.568Z,1.48
2017-01-09T08:38:06.202Z,1.41
2017-01-09T08:38:46.788Z,1.42
2017-01-09T08:39:27.391Z,1.52
2017-01-09T08:40:08.797Z,1.42
2017-01-09T08:40:49.433Z,1.42
2017-01-09T08:41:30.061Z,1.45
2017-01-09T08:42:10.669Z,1.48
2017-01-09T08:42:51.271Z,1.5
2017-01-09T08:43:31.919Z,1.52
2017-01-09T08:44:12.487Z,1.44
2017-01-09T08:44:53.138Z,1.53
2017-01-09T08:45:33.792Z,1.5
2017-01-09T08:46:14.442Z,1.45
2017-01-09T08:46:55.094Z,1.52
2017-01-09T08:47:35.766Z,1.49
2017-01-09T08:48:16.459Z,1.45
2017-01-09T08:48:57.038Z,1.55
2017-01-09T08:49:37.766Z,1.55
2017-01-09T08:50:18.454Z,1.5
2017-01-09T08:51:00.053Z,1.55
2017-01-09T08:51:40.680Z,1.52
2017-01-09T08:52:21.335Z,1.5
2017-01-09T08:53:01.995Z,1.5
2017-01-09T08:53:42.647Z,1.55
2017-01-09T08:54:23.310Z,1.58
2017-01-09T08:55:03.936Z,1.59
2017-01-09T08:55:44.531Z,1.62
2017-01-09T08:56:25.104Z,1.67
2017-01-09T08:57:05.714Z,1.62
2017-01-09T08:57:46.390Z,1.6
2017-01-09T08:58:26.998Z,1.7
2017-01-09T08:59:07.558Z,1.67
2017-01-09T08:59:53.143Z,1.7
2017-01-09T09:00:33.777Z,1.7
2017-01-09T09:01:14.365Z,1.77
2017-01-09T09:01:55.099Z,1.73
2017-01-09T09:02:35.733Z,1.8
2017-01-09T09:03:17.420Z,1.77
2017-01-09T09:03:58.094Z,1.87